createdAt,value
2023-04-26T00:03:34.627Z,100853.27
2023-04-26T00:06:04.914Z,100854.44
2023-04-26T00:08:33.393Z,100849.41
2023-04-26T00:11:03.861Z,100849.23
2023-04-26T00:13:32.153Z,100845.17
2023-04-26T00:16:00.883Z,100843.61
2023-04-26T00:18:29.202Z,100841.31
2023-04-26T00:20:57.989Z,100839.58
2023-04-26T00:23:27.427Z,100844.66
2023-04-26T00:25:57.732Z,100843.99
2023-04-26T00:28:25.934Z,100844.55
2023-04-26T00:30:54.192Z,100846.90
2023-04-26T00:33:22.483Z,100845.48
2023-04-26T00:35:51.179Z,100847.33
2023-04-26T00:38:19.981Z,100847.00
2023-04-26T00:40:48.672Z,100856.74
2023-04-26T00:43:19.102Z,100858.73
2023-04-26T00:45:48.571Z,100863.05
2023-04-26T00:48:18.742Z,100865.98
2023-04-26T00:50:48.067Z,100868.20
2023-04-26T00:53:18.190Z,100867.92
2023-04-26T00:55:47.150Z,100859.73
2023-04-26T00:58:16.492Z,100860.70
2023-04-26T01:00:46.653Z,100863.05
2023-04-26T01:03:15.601Z,100861.98
2023-04-26T01:05:46.716Z,100859.56
2023-04-26T01:08:16.203Z,100856.95
2023-04-26T01:10:44.534Z,100854.73
2023-04-26T01:13:14.793Z,100852.30
2023-04-26T01:15:48.224Z,100849.93
2023-04-26T01:18:17.269Z,100846.60
2023-04-26T01:20:45.938Z,100841.04
2023-04-26T01:23:15.785Z,100840.18
2023-04-26T01:25:44.850Z,100837.75
2023-04-26T01:28:14.344Z,100837.79
2023-04-26T01:30:43.609Z,100840.27
2023-04-26T01:33:11.960Z,100842.55
2023-04-26T01:35:40.258Z,100841.23
2023-04-26T01:38:09.367Z,100841.58
2023-04-26T01:40:38.833Z,100838.52
2023-04-26T01:43:09.291Z,100834.77
2023-04-26T01:45:38.180Z,100834.23
2023-04-26T01:48:08.368Z,100834.97
2023-04-26T01:50:37.052Z,100834.41
2023-04-26T01:53:06.542Z,100830.83
2023-04-26T01:55:34.820Z,100834.09
2023-04-26T01:58:03.880Z,100838.01
2023-04-26T02:00:33.830Z,100837.46
2023-04-26T02:03:02.490Z,100835.16
2023-04-26T02:05:31.816Z,100836.27
2023-04-26T02:08:01.449Z,100834.88
2023-04-26T02:10:30.661Z,100839.05
2023-04-26T02:12:59.408Z,100837.44
2023-04-26T02:15:28.271Z,100837.27
2023-04-26T02:17:57.067Z,100838.55
2023-04-26T02:20:25.981Z,100843.08
2023-04-26T02:22:55.280Z,100841.70
2023-04-26T02:25:24.846Z,100838.20
2023-04-26T02:27:54.062Z,100841.65
2023-04-26T02:30:22.307Z,100849.61
2023-04-26T02:32:55.311Z,100852.89
2023-04-26T02:35:24.105Z,100856.20
2023-04-26T02:37:53.290Z,100853.38
2023-04-26T02:40:22.720Z,100853.80
2023-04-26T02:42:51.985Z,100854.54
2023-04-26T02:45:20.737Z,100861.20
2023-04-26T02:47:49.593Z,100867.14
2023-04-26T02:50:18.433Z,100877.18
2023-04-26T02:52:48.189Z,100879.66
2023-04-26T02:55:17.505Z,100873.91
2023-04-26T02:57:46.337Z,100863.90
2023-04-26T03:00:15.204Z,100861.09
2023-04-26T03:02:44.989Z,100859.16
2023-04-26T03:05:15.218Z,100860.95
2023-04-26T03:07:43.798Z,100866.51
2023-04-26T03:10:12.798Z,100860.04
2023-04-26T03:12:41.015Z,100863.60
2023-04-26T03:15:11.275Z,100861.11
2023-04-26T03:17:40.529Z,100865.41
2023-04-26T03:20:09.291Z,100872.20
2023-04-26T03:22:39.374Z,100877.91
2023-04-26T03:25:08.277Z,100878.07
2023-04-26T03:27:36.856Z,100879.30
2023-04-26T03:30:06.668Z,100878.73
2023-04-26T03:32:36.918Z,100878.73
2023-04-26T03:35:07.304Z,100881.38
2023-04-26T03:37:36.270Z,100882.81
2023-04-26T03:40:10.256Z,100882.45
2023-04-26T03:42:38.985Z,100885.67
2023-04-26T03:45:08.731Z,100882.48
2023-04-26T03:47:37.912Z,100882.30
2023-04-26T03:50:08.431Z,100880.50
2023-04-26T03:52:37.188Z,100887.85
2023-04-26T03:55:06.604Z,100891.83
2023-04-26T03:57:35.310Z,100892.73
2023-04-26T04:00:04.861Z,100886.83
2023-04-26T04:02:34.506Z,100882.69
2023-04-26T04:05:04.009Z,100886.83
2023-04-26T04:07:32.310Z,100888.48
2023-04-26T04:10:01.689Z,100891.56
2023-04-26T04:12:31.105Z,100892.66
2023-04-26T04:14:59.715Z,100891.98
2023-04-26T04:17:28.834Z,100891.80
2023-04-26T04:20:02.562Z,100897.15
2023-04-26T04:22:34.411Z,100902.54
2023-04-26T04:25:03.264Z,100909.89
2023-04-26T04:27:32.272Z,100913.29
2023-04-26T04:30:01.200Z,100914.71
2023-04-26T04:32:30.176Z,100913.15
2023-04-26T04:34:59.830Z,100914.79
2023-04-26T04:37:29.228Z,100912.31
2023-04-26T04:39:58.754Z,100914.30
2023-04-26T04:42:28.527Z,100915.91
2023-04-26T04:44:57.054Z,100922.73
2023-04-26T04:47:25.773Z,100915.96
2023-04-26T04:49:55.513Z,100915.80
2023-04-26T04:52:24.226Z,100917.61
2023-04-26T04:54:54.434Z,100917.98
2023-04-26T04:57:23.014Z,100921.40
2023-04-26T04:59:52.371Z,100924.27
2023-04-26T05:02:21.386Z,100930.38
2023-04-26T05:04:51.624Z,100929.83
2023-04-26T05:07:20.888Z,100937.52
2023-04-26T05:09:50.358Z,100939.14
2023-04-26T05:12:19.071Z,100943.98
2023-04-26T05:14:47.818Z,100946.50
2023-04-26T05:17:16.047Z,100950.27
2023-04-26T05:19:44.865Z,100952.77
2023-04-26T05:22:13.216Z,100953.52
2023-04-26T05:24:42.408Z,100961.41
2023-04-26T05:27:12.121Z,100965.16
2023-04-26T05:29:41.262Z,100962.87
2023-04-26T05:32:11.249Z,100965.20
2023-04-26T05:34:42.039Z,100967.17
2023-04-26T05:37:10.877Z,100973.44
2023-04-26T05:39:39.524Z,100971.81
2023-04-26T05:42:08.933Z,100978.25
2023-04-26T05:44:38.324Z,100982.18
2023-04-26T05:47:08.943Z,100982.00
2023-04-26T05:49:37.660Z,100985.02
2023-04-26T05:52:06.285Z,100992.15
2023-04-26T05:54:36.125Z,100990.52
2023-04-26T05:57:04.907Z,100993.74
2023-04-26T05:59:37.580Z,100996.95
2023-04-26T06:02:05.930Z,100999.80
2023-04-26T06:04:34.437Z,100998.54
2023-04-26T06:07:03.037Z,101000.16
2023-04-26T06:09:34.580Z,101001.42
2023-04-26T06:12:03.748Z,101001.06
2023-04-26T06:14:32.164Z,100999.62
2023-04-26T06:17:00.678Z,101008.39
2023-04-26T06:19:29.291Z,101009.64
2023-04-26T06:21:57.586Z,101013.35
2023-04-26T06:24:25.753Z,101017.48
2023-04-26T06:26:54.266Z,101023.70
2023-04-26T06:29:22.457Z,101024.91
2023-04-26T06:31:50.670Z,101025.06
2023-04-26T06:34:19.106Z,101027.19
2023-04-26T06:36:47.532Z,101030.55
2023-04-26T06:39:15.930Z,101032.31
2023-04-26T06:41:44.474Z,101037.81
2023-04-26T06:44:12.598Z,101037.56
2023-04-26T06:46:40.839Z,101037.52
2023-04-26T06:49:11.627Z,101035.83
2023-04-26T06:51:39.780Z,101037.55
2023-04-26T06:54:08.136Z,101035.16
2023-04-26T06:56:36.375Z,101036.02
2023-04-26T06:59:07.200Z,101037.36
2023-04-26T07:01:36.165Z,101037.12
2023-04-26T07:04:07.361Z,101038.98
2023-04-26T07:06:37.837Z,101045.71
2023-04-26T07:09:06.647Z,101048.28
2023-04-26T07:11:35.056Z,101049.08
2023-04-26T07:14:05.025Z,101048.06
2023-04-26T07:16:33.161Z,101050.45
2023-04-26T07:19:02.317Z,101051.66
2023-04-26T07:21:31.093Z,101056.09
2023-04-26T07:23:59.250Z,101058.35
2023-04-26T07:26:27.577Z,101059.69
2023-04-26T07:28:56.246Z,101056.71
2023-04-26T07:31:24.499Z,101052.83
2023-04-26T07:33:53.009Z,101051.79
2023-04-26T07:36:24.565Z,101051.30
2023-04-26T07:38:53.510Z,101054.59
2023-04-26T07:41:21.742Z,101059.13
2023-04-26T07:43:50.686Z,101060.63
2023-04-26T07:46:19.328Z,101069.34
2023-04-26T07:48:47.774Z,101074.81
2023-04-26T07:51:16.307Z,101074.20
2023-04-26T07:53:45.604Z,101076.02
2023-04-26T07:56:13.765Z,101076.44
2023-04-26T07:58:42.258Z,101076.48
2023-04-26T08:01:10.384Z,101080.65
2023-04-26T08:03:38.847Z,101086.09
2023-04-26T08:06:07.487Z,101089.77
2023-04-26T08:08:36.554Z,101088.55
2023-04-26T08:11:08.355Z,101085.60
2023-04-26T08:13:36.881Z,101086.94
2023-04-26T08:16:06.427Z,101089.04
2023-04-26T08:18:38.561Z,101092.19
2023-04-26T08:21:06.845Z,101088.33
2023-04-26T08:23:36.318Z,101091.98
2023-04-26T08:26:05.209Z,101089.91
2023-04-26T08:28:33.434Z,101092.61
2023-04-26T08:31:02.660Z,101090.64
2023-04-26T08:33:30.925Z,101094.75
2023-04-26T08:36:00.234Z,101092.81
2023-04-26T08:38:29.894Z,101094.85
2023-04-26T08:41:01.067Z,101094.19
2023-04-26T08:43:30.484Z,101091.45
2023-04-26T08:46:00.095Z,101092.44
2023-04-26T08:48:36.510Z,101093.33
2023-04-26T08:51:06.857Z,101099.66
2023-04-26T08:53:37.335Z,101104.69
2023-04-26T08:56:07.911Z,101104.11
2023-04-26T08:58:38.764Z,101105.20
2023-04-26T09:01:09.346Z,101104.98
2023-04-26T09:03:37.935Z,101108.31
2023-04-26T09:06:07.904Z,101108.79
2023-04-26T09:08:40.603Z,101109.00
2023-04-26T09:11:10.547Z,101111.16
2023-04-26T09:13:39.943Z,101110.09
2023-04-26T09:16:09.542Z,101103.31
2023-04-26T09:18:49.962Z,101107.96
2023-04-26T09:21:18.684Z,101114.81
2023-04-26T09:24:08.270Z,101118.77
2023-04-26T09:26:36.496Z,101114.49
2023-04-26T09:29:16.818Z,101117.35
2023-04-26T09:31:50.233Z,101118.77
2023-04-26T09:34:19.174Z,101118.33
2023-04-26T09:36:55.500Z,101117.21
2023-04-26T09:39:38.466Z,101117.77
2023-04-26T09:42:08.258Z,101121.50
2023-04-26T09:44:38.517Z,101124.79
2023-04-26T09:47:09.526Z,101123.63
2023-04-26T09:49:49.820Z,101129.58
2023-04-26T09:52:19.949Z,101130.25
2023-04-26T09:54:53.289Z,101129.27
2023-04-26T09:57:22.568Z,101128.49
2023-04-26T09:59:55.024Z,101129.98
2023-04-26T10:02:26.763Z,101132.66
2023-04-26T10:04:57.271Z,101141.20
2023-04-26T10:07:27.451Z,101135.48
2023-04-26T10:09:58.532Z,101135.02
2023-04-26T10:12:29.975Z,101138.70
2023-04-26T10:14:59.178Z,101145.48
2023-04-26T10:17:28.114Z,101146.00
2023-04-26T10:19:59.004Z,101142.54
2023-04-26T10:22:32.538Z,101139.69
2023-04-26T10:25:01.079Z,101141.02
2023-04-26T10:27:49.015Z,101140.16
2023-04-26T10:30:21.381Z,101141.34
2023-04-26T10:32:55.854Z,101139.41
2023-04-26T10:35:29.030Z,101144.11
2023-04-26T10:38:00.792Z,101149.14
2023-04-26T10:40:30.622Z,101145.51
2023-04-26T10:43:17.497Z,101156.09
2023-04-26T10:45:47.710Z,101150.63
2023-04-26T10:48:23.382Z,101140.70
2023-04-26T10:51:04.448Z,101135.77
2023-04-26T10:53:53.968Z,101140.30
2023-04-26T10:56:28.804Z,101140.66
2023-04-26T11:02:01.332Z,101139.92
2023-04-26T11:04:52.930Z,101140.50
2023-04-26T11:07:37.480Z,101138.94
2023-04-26T11:10:09.432Z,101133.84
2023-04-26T11:12:42.340Z,101134.29
2023-04-26T11:15:13.560Z,101133.58
2023-04-26T11:17:42.458Z,101137.45
2023-04-26T11:20:16.380Z,101131.45
2023-04-26T11:22:45.329Z,101135.38
2023-04-26T11:25:14.615Z,101138.33
2023-04-26T11:27:43.738Z,101139.23
2023-04-26T11:30:13.014Z,101136.31
2023-04-26T11:32:42.385Z,101129.58
2023-04-26T11:35:11.293Z,101127.82
2023-04-26T11:37:39.770Z,101126.67
2023-04-26T11:40:11.154Z,101124.43
2023-04-26T11:42:39.447Z,101124.84
2023-04-26T11:45:08.260Z,101122.41
2023-04-26T11:47:37.702Z,101118.06
2023-04-26T11:50:08.365Z,101111.09
2023-04-26T11:52:38.319Z,101112.33
2023-04-26T11:55:07.597Z,101108.48
2023-04-26T11:57:35.897Z,101109.91
2023-04-26T12:00:08.519Z,101112.84
2023-04-26T12:02:37.833Z,101113.30
2023-04-26T12:05:07.105Z,101107.02
2023-04-26T12:07:36.770Z,101101.80
2023-04-26T12:10:15.950Z,101095.70
2023-04-26T12:12:47.838Z,101094.60
2023-04-26T12:15:16.511Z,101095.60
2023-04-26T12:18:08.081Z,101098.86
2023-04-26T12:20:41.833Z,101098.95
2023-04-26T12:23:17.585Z,101097.27
2023-04-26T12:25:56.569Z,101094.18
2023-04-26T12:28:25.047Z,101094.96
2023-04-26T12:30:53.472Z,101087.63
2023-04-26T12:33:21.817Z,101083.14
2023-04-26T12:35:50.429Z,101085.75
2023-04-26T12:38:19.135Z,101087.59
2023-04-26T12:40:48.776Z,101088.88
2023-04-26T12:43:17.115Z,101090.39
2023-04-26T12:45:46.013Z,101092.34
2023-04-26T12:48:16.260Z,101085.58
2023-04-26T12:50:44.966Z,101085.10
2023-04-26T12:53:14.468Z,101086.48
2023-04-26T12:55:42.999Z,101082.40
2023-04-26T12:58:11.745Z,101082.54
2023-04-26T13:00:41.291Z,101077.97
2023-04-26T13:03:10.943Z,101076.80
2023-04-26T13:05:39.360Z,101073.80
2023-04-26T13:08:07.535Z,101076.64
2023-04-26T13:10:36.223Z,101077.57
2023-04-26T13:13:05.115Z,101078.98
2023-04-26T13:15:34.575Z,101081.52
2023-04-26T13:18:03.923Z,101078.49
2023-04-26T13:20:32.205Z,101082.15
2023-04-26T13:23:01.278Z,101083.83
2023-04-26T13:25:30.096Z,101084.38
2023-04-26T13:27:58.777Z,101089.89
2023-04-26T13:30:27.914Z,101084.09
2023-04-26T13:32:59.456Z,101084.71
2023-04-26T13:35:28.745Z,101082.14
2023-04-26T13:37:57.627Z,101077.61
2023-04-26T13:40:26.518Z,101072.84
2023-04-26T13:42:55.757Z,101077.83
2023-04-26T13:45:24.808Z,101070.27
2023-04-26T13:47:54.149Z,101069.66
2023-04-26T13:50:22.558Z,101062.55
2023-04-26T13:52:52.577Z,101070.44
2023-04-26T13:55:21.146Z,101066.96
2023-04-26T13:57:50.512Z,101068.87
2023-04-26T14:00:21.652Z,101065.70
2023-04-26T14:02:50.205Z,101065.54
2023-04-26T14:05:20.676Z,101069.34
2023-04-26T14:07:49.586Z,101066.72
2023-04-26T14:10:18.543Z,101062.42
2023-04-26T14:12:47.254Z,101053.79
2023-04-26T14:15:15.605Z,101060.61
2023-04-26T14:17:45.596Z,101065.05
2023-04-26T14:20:14.852Z,101069.02
2023-04-26T14:22:44.129Z,101069.09
2023-04-26T14:25:13.346Z,101072.39
2023-04-26T14:27:41.457Z,101074.16
2023-04-26T14:30:11.523Z,101074.45
2023-04-26T14:32:39.842Z,101074.04
2023-04-26T14:35:09.091Z,101073.78
2023-04-26T14:37:37.958Z,101073.84
2023-04-26T14:40:07.267Z,101071.05
2023-04-26T14:42:35.381Z,101062.88
2023-04-26T14:45:04.714Z,101059.05
2023-04-26T14:47:34.142Z,101051.71
2023-04-26T14:50:03.189Z,101046.81
2023-04-26T14:52:34.706Z,101055.47
2023-04-26T14:55:03.728Z,101055.29
2023-04-26T14:57:32.872Z,101059.94
2023-04-26T15:00:02.354Z,101066.39
2023-04-26T15:02:31.001Z,101068.74
2023-04-26T15:05:00.506Z,101061.63
2023-04-26T15:07:32.449Z,101057.27
2023-04-26T15:10:01.582Z,101057.30
2023-04-26T15:12:31.587Z,101057.16
2023-04-26T15:15:00.671Z,101054.72
2023-04-26T15:17:33.040Z,101055.88
2023-04-26T15:20:03.643Z,101055.80
2023-04-26T15:22:34.865Z,101057.04
2023-04-26T15:25:06.336Z,101055.60
2023-04-26T15:27:36.147Z,101056.86
2023-04-26T15:30:08.138Z,101059.10
2023-04-26T15:32:36.391Z,101054.45
2023-04-26T15:35:05.709Z,101054.20
2023-04-26T15:37:37.245Z,101055.13
2023-04-26T15:40:07.290Z,101055.64
2023-04-26T15:42:36.939Z,101054.68
2023-04-26T15:45:07.063Z,101057.10
2023-04-26T15:47:35.376Z,101055.08
2023-04-26T15:50:04.704Z,101052.66
2023-04-26T15:52:39.298Z,101055.40
2023-04-26T15:55:08.171Z,101052.42
2023-04-26T15:57:36.801Z,101046.19
2023-04-26T16:00:08.060Z,101044.04
2023-04-26T16:02:38.463Z,101044.65
2023-04-26T16:05:07.303Z,101044.52
2023-04-26T16:07:37.113Z,101042.98
2023-04-26T16:10:08.637Z,101044.30
2023-04-26T16:12:37.351Z,101044.02
2023-04-26T16:15:08.274Z,101042.06
2023-04-26T16:17:37.430Z,101043.30
2023-04-26T16:20:07.399Z,101040.11
2023-04-26T16:22:37.099Z,101041.50
2023-04-26T16:25:06.678Z,101035.29
2023-04-26T16:27:35.599Z,101031.10
2023-04-26T16:30:04.797Z,101034.55
2023-04-26T16:32:33.675Z,101036.38
2023-04-26T16:35:01.901Z,101038.85
2023-04-26T16:37:31.438Z,101042.78
2023-04-26T16:40:00.921Z,101041.61
2023-04-26T16:42:30.597Z,101041.15
2023-04-26T16:45:00.206Z,101046.79
2023-04-26T16:47:28.392Z,101046.99
2023-04-26T16:49:57.037Z,101047.33
2023-04-26T16:52:25.306Z,101052.83
2023-04-26T16:54:54.409Z,101058.34
2023-04-26T16:57:22.617Z,101057.26
2023-04-26T16:59:51.721Z,101052.36
2023-04-26T17:02:20.244Z,101051.52
2023-04-26T17:04:50.064Z,101052.13
2023-04-26T17:07:18.933Z,101050.36
2023-04-26T17:09:47.510Z,101052.64
2023-04-26T17:12:16.293Z,101056.66
2023-04-26T17:14:46.090Z,101055.71
2023-04-26T17:17:16.082Z,101049.92
2023-04-26T17:19:44.226Z,101046.56
2023-04-26T17:22:13.554Z,101047.17
2023-04-26T17:24:42.654Z,101047.73
2023-04-26T17:27:10.771Z,101049.65
2023-04-26T17:29:39.018Z,101048.48
2023-04-26T17:32:07.265Z,101036.17
2023-04-26T17:34:36.024Z,101031.71
2023-04-26T17:37:04.409Z,101034.34
2023-04-26T17:39:33.142Z,101036.91
2023-04-26T17:42:01.420Z,101040.54
2023-04-26T17:44:29.838Z,101044.61
2023-04-26T17:46:58.178Z,101044.80
2023-04-26T17:49:26.520Z,101042.05
2023-04-26T17:51:55.601Z,101040.95
2023-04-26T17:54:23.901Z,101041.30
2023-04-26T17:56:52.354Z,101045.60
2023-04-26T17:59:21.078Z,101044.48
2023-04-26T18:01:50.411Z,101045.77
2023-04-26T18:04:19.286Z,101047.67
2023-04-26T18:06:49.673Z,101048.58
2023-04-26T18:09:18.423Z,101050.46
2023-04-26T18:11:47.993Z,101054.77
2023-04-26T18:14:16.925Z,101053.89
2023-04-26T18:16:45.224Z,101049.27
2023-04-26T18:19:14.184Z,101053.00
2023-04-26T18:21:42.694Z,101050.42
2023-04-26T18:24:10.960Z,101055.41
2023-04-26T18:26:41.062Z,101061.59
2023-04-26T18:29:09.895Z,101065.80
2023-04-26T18:31:39.532Z,101066.96
2023-04-26T18:34:07.993Z,101068.46
2023-04-26T18:36:36.792Z,101070.51
2023-04-26T18:39:04.955Z,101072.86
2023-04-26T18:41:33.092Z,101073.73
2023-04-26T18:44:03.439Z,101078.59
2023-04-26T18:46:31.784Z,101077.22
2023-04-26T18:49:00.181Z,101071.34
2023-04-26T18:51:28.645Z,101069.63
2023-04-26T18:53:57.029Z,101069.48
2023-04-26T18:56:25.323Z,101070.56
2023-04-26T18:58:54.614Z,101080.59
2023-04-26T19:01:22.922Z,101086.31
2023-04-26T19:03:51.469Z,101089.53
2023-04-26T19:06:20.502Z,101090.31
2023-04-26T19:08:48.586Z,101095.25
2023-04-26T19:11:17.219Z,101094.77
2023-04-26T19:13:45.481Z,101092.67
2023-04-26T19:16:14.028Z,101095.16
2023-04-26T19:18:42.078Z,101094.20
2023-04-26T19:21:11.329Z,101093.48
2023-04-26T19:23:40.024Z,101094.39
2023-04-26T19:26:12.157Z,101099.42
2023-04-26T19:28:40.941Z,101104.16
2023-04-26T19:31:09.994Z,101109.19
2023-04-26T19:33:38.608Z,101110.45
2023-04-26T19:36:09.098Z,101104.67
2023-04-26T19:38:37.314Z,101111.98
2023-04-26T19:41:05.762Z,101112.73
2023-04-26T19:43:34.088Z,101119.73
2023-04-26T19:46:10.419Z,101121.14
2023-04-26T19:48:38.613Z,101126.16
2023-04-26T19:51:06.941Z,101121.70
2023-04-26T19:53:35.383Z,101126.41
2023-04-26T19:56:03.718Z,101128.19
2023-04-26T19:58:32.593Z,101128.00
2023-04-26T20:01:01.463Z,101126.90
2023-04-26T20:03:30.875Z,101129.18
2023-04-26T20:05:59.691Z,101130.59
2023-04-26T20:08:30.246Z,101136.89
2023-04-26T20:11:03.212Z,101140.48
2023-04-26T20:13:32.494Z,101144.77
2023-04-26T20:16:00.928Z,101153.91
2023-04-26T20:18:29.341Z,101157.32
2023-04-26T20:20:57.821Z,101160.02
2023-04-26T20:23:25.938Z,101160.95
2023-04-26T20:25:54.141Z,101165.67
2023-04-26T20:28:24.166Z,101168.77
2023-04-26T20:30:52.446Z,101168.08
2023-04-26T20:33:20.633Z,101167.58
2023-04-26T20:35:49.267Z,101169.37
2023-04-26T20:38:18.016Z,101172.81
2023-04-26T20:40:47.104Z,101176.80
2023-04-26T20:43:15.763Z,101175.75
2023-04-26T20:45:43.966Z,101172.68
2023-04-26T20:48:12.335Z,101170.34
2023-04-26T20:50:41.209Z,101175.02
2023-04-26T20:53:09.605Z,101174.66
2023-04-26T20:55:37.919Z,101172.71
2023-04-26T20:58:06.244Z,101177.73
2023-04-26T21:00:36.086Z,101181.90
2023-04-26T21:03:05.315Z,101180.13
2023-04-26T21:05:33.946Z,101176.71
2023-04-26T21:08:03.180Z,101178.71
2023-04-26T21:10:31.936Z,101181.79
2023-04-26T21:13:00.534Z,101182.89
2023-04-26T21:15:29.562Z,101184.71
2023-04-26T21:17:57.819Z,101177.58
2023-04-26T21:20:26.268Z,101180.48
2023-04-26T21:22:54.579Z,101177.44
2023-04-26T21:25:23.097Z,101179.06
2023-04-26T21:27:51.543Z,101181.05
2023-04-26T21:30:22.450Z,101185.16
2023-04-26T21:32:50.826Z,101185.33
2023-04-26T21:35:20.399Z,101190.88
2023-04-26T21:37:49.105Z,101188.55
2023-04-26T21:40:18.087Z,101187.84
2023-04-26T21:42:57.978Z,101188.38
2023-04-26T21:45:33.179Z,101190.88
2023-04-26T21:48:02.078Z,101187.67
2023-04-26T21:50:30.388Z,101190.00
2023-04-26T21:52:59.446Z,101191.42
2023-04-26T21:55:28.228Z,101198.44
2023-04-26T21:57:56.540Z,101197.02
2023-04-26T22:00:24.974Z,101193.99
2023-04-26T22:02:53.393Z,101190.42
2023-04-26T22:05:21.878Z,101192.21
2023-04-26T22:07:50.179Z,101191.34
2023-04-26T22:10:18.698Z,101188.29
2023-04-26T22:12:47.523Z,101187.95
2023-04-26T22:15:16.544Z,101186.53
2023-04-26T22:17:45.076Z,101189.04
2023-04-26T22:20:13.895Z,101188.87
2023-04-26T22:22:42.153Z,101192.10
2023-04-26T22:25:10.973Z,101191.73
2023-04-26T22:27:39.648Z,101195.65
2023-04-26T22:30:22.962Z,101197.45
2023-04-26T22:32:55.098Z,101199.94
2023-04-26T22:35:26.955Z,101197.78
2023-04-26T22:37:55.783Z,101203.30
2023-04-26T22:40:24.579Z,101207.23
2023-04-26T22:42:53.064Z,101208.30
2023-04-26T22:45:23.393Z,101207.23
2023-04-26T22:47:51.904Z,101208.11
2023-04-26T22:50:21.379Z,101209.39
2023-04-26T22:52:49.779Z,101212.80
2023-04-26T22:55:18.320Z,101211.38
2023-04-26T22:57:46.677Z,101212.63
2023-04-26T23:00:15.720Z,101207.59
2023-04-26T23:02:43.997Z,101209.55
2023-04-26T23:05:13.386Z,101208.84
2023-04-26T23:07:42.217Z,101214.04
2023-04-26T23:10:11.084Z,101227.29
2023-04-26T23:12:39.870Z,101228.74
2023-04-26T23:15:09.743Z,101232.67
2023-04-26T23:17:38.260Z,101234.83
2023-04-26T23:20:07.803Z,101237.67
2023-04-26T23:22:36.084Z,101237.66
2023-04-26T23:25:04.457Z,101235.52
2023-04-26T23:27:32.660Z,101230.52
2023-04-26T23:30:01.057Z,101232.67
2023-04-26T23:32:29.454Z,101229.83
2023-04-26T23:34:57.801Z,101231.63
2023-04-26T23:37:26.585Z,101232.88
2023-04-26T23:39:55.200Z,101235.76
2023-04-26T23:42:23.548Z,101236.63
2023-04-26T23:44:51.725Z,101236.81
2023-04-26T23:47:20.782Z,101237.35
2023-04-26T23:49:49.471Z,101236.63
2023-04-26T23:52:19.041Z,101237.69
2023-04-26T23:54:47.846Z,101241.96
2023-04-26T23:57:16.163Z,101244.66
2023-04-26T23:59:45.008Z,101245.73
